sensor_id;sensor_type;location;lat;lon;timestamp;temperature;humidity
2407;DHT22;37709;53.480;9.688;2024-01-10T00:00:51;-9.90;99.90
2407;DHT22;37709;53.480;9.688;2024-01-10T00:03:18;-10.00;99.90
2407;DHT22;37709;53.480;9.688;2024-01-10T00:05:45;-9.80;99.90
2407;DHT22;37709;53.480;9.688;2024-01-10T00:08:13;-9.50;99.90
2407;DHT22;37709;53.480;9.688;2024-01-10T00:10:41;-9.20;99.90
2407;DHT22;37709;53.480;9.688;2024-01-10T00:13:08;-9.10;99.90
2407;DHT22;37709;53.480;9.688;2024-01-10T00:15:36;-8.90;99.90
2407;DHT22;37709;53.480;9.688;2024-01-10T00:18:04;-8.70;99.90
2407;DHT22;37709;53.480;9.688;2024-01-10T00:20:32;-8.60;99.90
2407;DHT22;37709;53.480;9.688;2024-01-10T00:22:59;-8.50;99.90
2407;DHT22;37709;53.480;9.688;2024-01-10T00:25:26;-8.40;99.90
2407;DHT22;37709;53.480;9.688;2024-01-10T00:27:54;-8.40;99.90
2407;DHT22;37709;53.480;9.688;2024-01-10T00:30:22;-8.30;99.90
2407;DHT22;37709;53.480;9.688;2024-01-10T00:32:49;-8.30;99.90
2407;DHT22;37709;53.480;9.688;2024-01-10T00:35:18;-8.30;99.90
2407;DHT22;37709;53.480;9.688;2024-01-10T00:37:45;-8.30;99.90
2407;DHT22;37709;53.480;9.688;2024-01-10T00:40:13;-8.40;99.90
2407;DHT22;37709;53.480;9.688;2024-01-10T00:42:40;-8.50;99.90
2407;DHT22;37709;53.480;9.688;2024-01-10T00:45:10;-8.50;99.90
2407;DHT22;37709;53.480;9.688;2024-01-10T00:47:37;-8.60;99.90
2407;DHT22;37709;53.480;9.688;2024-01-10T00:50:05;-8.80;99.90
2407;DHT22;37709;53.480;9.688;2024-01-10T00:52:33;-9.10;99.90
2407;DHT22;37709;53.480;9.688;2024-01-10T00:55:00;-9.30;99.90
2407;DHT22;37709;53.480;9.688;2024-01-10T00:57:27;-9.40;99.90
2407;DHT22;37709;53.480;9.688;2024-01-10T00:59:56;-9.50;99.90
2407;DHT22;37709;53.480;9.688;2024-01-10T01:02:26;-9.50;99.90
2407;DHT22;37709;53.480;9.688;2024-01-10T01:04:54;-9.50;99.90
2407;DHT22;37709;53.480;9.688;2024-01-10T01:07:23;-9.40;99.90
2407;DHT22;37709;53.480;9.688;2024-01-10T01:09:51;-9.40;99.90
2407;DHT22;37709;53.480;9.688;2024-01-10T01:12:18;-9.50;99.90
2407;DHT22;37709;53.480;9.688;2024-01-10T01:14:48;-9.40;99.90
2407;DHT22;37709;53.480;9.688;2024-01-10T01:17:16;-9.20;99.90
2407;DHT22;37709;53.480;9.688;2024-01-10T01:19:44;-9.00;99.90
2407;DHT22;37709;53.480;9.688;2024-01-10T01:22:16;-8.90;99.90
2407;DHT22;37709;53.480;9.688;2024-01-10T01:24:44;-8.90;99.90
2407;DHT22;37709;53.480;9.688;2024-01-10T01:27:13;-9.10;99.90
2407;DHT22;37709;53.480;9.688;2024-01-10T01:29:41;-9.20;99.90
2407;DHT22;37709;53.480;9.688;2024-01-10T01:32:10;-9.20;99.90
2407;DHT22;37709;53.480;9.688;2024-01-10T01:34:37;-9.10;99.90
2407;DHT22;37709;53.480;9.688;2024-01-10T01:37:08;-9.30;99.90
2407;DHT22;37709;53.480;9.688;2024-01-10T01:39:36;-9.30;99.90
2407;DHT22;37709;53.480;9.688;2024-01-10T01:42:03;-9.30;99.90
2407;DHT22;37709;53.480;9.688;2024-01-10T01:44:31;-9.20;99.90
2407;DHT22;37709;53.480;9.688;2024-01-10T01:46:59;-9.30;99.90
2407;DHT22;37709;53.480;9.688;2024-01-10T01:49:27;-9.20;99.90
2407;DHT22;37709;53.480;9.688;2024-01-10T01:52:00;-9.10;99.90
2407;DHT22;37709;53.480;9.688;2024-01-10T01:54:29;-9.30;99.90
2407;DHT22;37709;53.480;9.688;2024-01-10T01:56:58;-9.30;99.90
2407;DHT22;37709;53.480;9.688;2024-01-10T01:59:26;-9.40;99.90
2407;DHT22;37709;53.480;9.688;2024-01-10T02:01:54;-9.60;99.90
2407;DHT22;37709;53.480;9.688;2024-01-10T02:04:23;-9.60;99.90
2407;DHT22;37709;53.480;9.688;2024-01-10T02:06:51;-9.70;99.90
2407;DHT22;37709;53.480;9.688;2024-01-10T02:09:19;-9.80;99.90
2407;DHT22;37709;53.480;9.688;2024-01-10T02:11:46;-9.90;99.90
2407;DHT22;37709;53.480;9.688;2024-01-10T02:14:13;-9.80;99.90
2407;DHT22;37709;53.480;9.688;2024-01-10T02:16:42;-9.90;99.90
2407;DHT22;37709;53.480;9.688;2024-01-10T02:19:22;-9.90;99.90
2407;DHT22;37709;53.480;9.688;2024-01-10T02:21:52;-10.00;99.90
2407;DHT22;37709;53.480;9.688;2024-01-10T02:24:20;-10.10;99.90
2407;DHT22;37709;53.480;9.688;2024-01-10T02:26:48;-10.00;99.90
2407;DHT22;37709;53.480;9.688;2024-01-10T02:29:17;-10.10;99.90
2407;DHT22;37709;53.480;9.688;2024-01-10T02:31:44;-10.10;99.90
2407;DHT22;37709;53.480;9.688;2024-01-10T02:34:13;-10.20;99.90
2407;DHT22;37709;53.480;9.688;2024-01-10T02:36:40;-10.10;99.90
2407;DHT22;37709;53.480;9.688;2024-01-10T02:39:07;-10.00;99.90
2407;DHT22;37709;53.480;9.688;2024-01-10T02:41:35;-9.70;99.90
2407;DHT22;37709;53.480;9.688;2024-01-10T02:44:02;-9.40;99.90
2407;DHT22;37709;53.480;9.688;2024-01-10T02:46:29;-9.20;99.90
2407;DHT22;37709;53.480;9.688;2024-01-10T02:48:57;-9.10;99.90
2407;DHT22;37709;53.480;9.688;2024-01-10T02:51:27;-8.90;99.90
2407;DHT22;37709;53.480;9.688;2024-01-10T02:53:55;-8.70;99.90
2407;DHT22;37709;53.480;9.688;2024-01-10T02:56:25;-8.60;99.90
2407;DHT22;37709;53.480;9.688;2024-01-10T02:58:52;-8.50;99.90
2407;DHT22;37709;53.480;9.688;2024-01-10T03:01:21;-8.40;99.90
2407;DHT22;37709;53.480;9.688;2024-01-10T03:03:48;-8.50;99.90
2407;DHT22;37709;53.480;9.688;2024-01-10T03:06:16;-8.40;99.90
2407;DHT22;37709;53.480;9.688;2024-01-10T03:08:45;-8.40;99.90
2407;DHT22;37709;53.480;9.688;2024-01-10T03:11:12;-8.30;99.90
2407;DHT22;37709;53.480;9.688;2024-01-10T03:13:43;-8.30;99.90
2407;DHT22;37709;53.480;9.688;2024-01-10T03:16:13;-8.20;99.90
2407;DHT22;37709;53.480;9.688;2024-01-10T03:18:40;-8.10;99.90
2407;DHT22;37709;53.480;9.688;2024-01-10T03:21:11;-8.10;99.90
2407;DHT22;37709;53.480;9.688;2024-01-10T03:23:41;-8.10;99.90
2407;DHT22;37709;53.480;9.688;2024-01-10T03:26:09;-7.90;99.90
2407;DHT22;37709;53.480;9.688;2024-01-10T03:28:41;-7.80;99.90
2407;DHT22;37709;53.480;9.688;2024-01-10T03:31:10;-7.70;99.90
2407;DHT22;37709;53.480;9.688;2024-01-10T03:33:42;-7.60;99.90
2407;DHT22;37709;53.480;9.688;2024-01-10T03:36:17;-7.60;99.90
2407;DHT22;37709;53.480;9.688;2024-01-10T03:38:45;-7.50;99.90
2407;DHT22;37709;53.480;9.688;2024-01-10T03:41:13;-7.50;99.90
2407;DHT22;37709;53.480;9.688;2024-01-10T03:43:42;-7.50;99.90
2407;DHT22;37709;53.480;9.688;2024-01-10T03:46:11;-7.50;99.90
2407;DHT22;37709;53.480;9.688;2024-01-10T03:48:39;-7.40;99.90
2407;DHT22;37709;53.480;9.688;2024-01-10T03:51:18;-7.40;99.90
2407;DHT22;37709;53.480;9.688;2024-01-10T03:53:46;-7.30;99.90
2407;DHT22;37709;53.480;9.688;2024-01-10T03:56:13;-7.20;99.90
2407;DHT22;37709;53.480;9.688;2024-01-10T03:58:43;-7.20;99.90
2407;DHT22;37709;53.480;9.688;2024-01-10T04:01:12;-7.10;99.90
2407;DHT22;37709;53.480;9.688;2024-01-10T04:03:40;-7.10;99.90
2407;DHT22;37709;53.480;9.688;2024-01-10T04:06:09;-7.10;99.90
2407;DHT22;37709;53.480;9.688;2024-01-10T04:08:37;-7.00;99.90
2407;DHT22;37709;53.480;9.688;2024-01-10T04:11:05;-7.00;99.90
2407;DHT22;37709;53.480;9.688;2024-01-10T04:13:33;-6.90;99.90
2407;DHT22;37709;53.480;9.688;2024-01-10T04:16:00;-6.80;99.90
2407;DHT22;37709;53.480;9.688;2024-01-10T04:18:30;-6.80;99.90
2407;DHT22;37709;53.480;9.688;2024-01-10T04:20:58;-6.70;99.90
2407;DHT22;37709;53.480;9.688;2024-01-10T04:23:25;-6.60;99.90
2407;DHT22;37709;53.480;9.688;2024-01-10T04:25:52;-6.60;99.90
2407;DHT22;37709;53.480;9.688;2024-01-10T04:28:21;-6.60;99.90
2407;DHT22;37709;53.480;9.688;2024-01-10T04:30:48;-6.50;99.90
2407;DHT22;37709;53.480;9.688;2024-01-10T04:33:18;-6.50;99.90
2407;DHT22;37709;53.480;9.688;2024-01-10T04:35:45;-6.40;99.90
2407;DHT22;37709;53.480;9.688;2024-01-10T04:38:13;-6.40;99.90
2407;DHT22;37709;53.480;9.688;2024-01-10T04:40:43;-6.30;99.90
2407;DHT22;37709;53.480;9.688;2024-01-10T04:43:12;-6.20;99.90
2407;DHT22;37709;53.480;9.688;2024-01-10T04:45:41;-6.20;99.90
2407;DHT22;37709;53.480;9.688;2024-01-10T04:48:09;-6.10;99.90
2407;DHT22;37709;53.480;9.688;2024-01-10T04:50:36;-6.10;99.90
2407;DHT22;37709;53.480;9.688;2024-01-10T04:53:04;-6.20;99.90
2407;DHT22;37709;53.480;9.688;2024-01-10T04:55:33;-6.10;99.90
2407;DHT22;37709;53.480;9.688;2024-01-10T04:58:00;-6.00;99.90
2407;DHT22;37709;53.480;9.688;2024-01-10T05:00:27;-6.00;99.90
2407;DHT22;37709;53.480;9.688;2024-01-10T05:02:55;-6.00;99.90
2407;DHT22;37709;53.480;9.688;2024-01-10T05:05:24;-6.00;99.90
2407;DHT22;37709;53.480;9.688;2024-01-10T05:07:52;-6.00;99.90
2407;DHT22;37709;53.480;9.688;2024-01-10T05:10:20;-6.00;99.90
2407;DHT22;37709;53.480;9.688;2024-01-10T05:12:48;-5.90;99.90
2407;DHT22;37709;53.480;9.688;2024-01-10T05:15:18;-5.90;99.90
2407;DHT22;37709;53.480;9.688;2024-01-10T05:17:46;-5.90;99.90
2407;DHT22;37709;53.480;9.688;2024-01-10T05:20:13;-5.80;99.90
2407;DHT22;37709;53.480;9.688;2024-01-10T05:22:42;-5.80;99.90
2407;DHT22;37709;53.480;9.688;2024-01-10T05:25:10;-5.80;99.90
2407;DHT22;37709;53.480;9.688;2024-01-10T05:27:39;-5.70;99.90
2407;DHT22;37709;53.480;9.688;2024-01-10T05:30:08;-5.70;99.90
2407;DHT22;37709;53.480;9.688;2024-01-10T05:32:36;-5.70;99.90
2407;DHT22;37709;53.480;9.688;2024-01-10T05:35:04;-5.60;99.90
2407;DHT22;37709;53.480;9.688;2024-01-10T05:37:33;-5.60;99.90
2407;DHT22;37709;53.480;9.688;2024-01-10T05:40:00;-5.50;99.90
2407;DHT22;37709;53.480;9.688;2024-01-10T05:42:30;-5.50;99.90
2407;DHT22;37709;53.480;9.688;2024-01-10T05:44:59;-5.40;99.90
2407;DHT22;37709;53.480;9.688;2024-01-10T05:47:30;-5.40;99.90
2407;DHT22;37709;53.480;9.688;2024-01-10T05:49:59;-5.40;99.90
2407;DHT22;37709;53.480;9.688;2024-01-10T05:52:27;-5.40;99.90
2407;DHT22;37709;53.480;9.688;2024-01-10T05:54:55;-5.40;99.90
2407;DHT22;37709;53.480;9.688;2024-01-10T05:57:22;-5.30;99.90
2407;DHT22;37709;53.480;9.688;2024-01-10T05:59:51;-5.40;99.90
2407;DHT22;37709;53.480;9.688;2024-01-10T06:02:25;-5.40;99.90
2407;DHT22;37709;53.480;9.688;2024-01-10T06:04:53;-5.40;99.90
2407;DHT22;37709;53.480;9.688;2024-01-10T06:07:20;-5.40;99.90
2407;DHT22;37709;53.480;9.688;2024-01-10T06:09:49;-5.40;99.90
2407;DHT22;37709;53.480;9.688;2024-01-10T06:12:16;-5.40;99.90
2407;DHT22;37709;53.480;9.688;2024-01-10T06:14:43;-5.50;99.90
2407;DHT22;37709;53.480;9.688;2024-01-10T06:17:12;-5.50;99.90
2407;DHT22;37709;53.480;9.688;2024-01-10T06:19:46;-5.40;99.90
2407;DHT22;37709;53.480;9.688;2024-01-10T06:22:14;-5.40;99.90
2407;DHT22;37709;53.480;9.688;2024-01-10T06:24:43;-5.30;99.90
2407;DHT22;37709;53.480;9.688;2024-01-10T06:27:14;-5.30;99.90
2407;DHT22;37709;53.480;9.688;2024-01-10T06:29:41;-5.20;99.90
2407;DHT22;37709;53.480;9.688;2024-01-10T06:32:10;-5.20;99.90
2407;DHT22;37709;53.480;9.688;2024-01-10T06:34:39;-5.20;99.90
2407;DHT22;37709;53.480;9.688;2024-01-10T06:37:07;-5.20;99.90
2407;DHT22;37709;53.480;9.688;2024-01-10T06:39:37;-5.10;99.90
2407;DHT22;37709;53.480;9.688;2024-01-10T06:42:06;-5.10;99.90
2407;DHT22;37709;53.480;9.688;2024-01-10T06:44:37;-5.10;99.90
2407;DHT22;37709;53.480;9.688;2024-01-10T06:47:06;-5.10;99.90
2407;DHT22;37709;53.480;9.688;2024-01-10T06:49:34;-5.00;99.90
2407;DHT22;37709;53.480;9.688;2024-01-10T06:52:11;-5.00;99.90
2407;DHT22;37709;53.480;9.688;2024-01-10T06:54:39;-5.00;99.90
2407;DHT22;37709;53.480;9.688;2024-01-10T06:57:35;-4.90;99.90
2407;DHT22;37709;53.480;9.688;2024-01-10T07:00:04;-4.90;99.90
2407;DHT22;37709;53.480;9.688;2024-01-10T07:02:34;-4.90;99.90
2407;DHT22;37709;53.480;9.688;2024-01-10T07:05:07;-4.90;99.90
2407;DHT22;37709;53.480;9.688;2024-01-10T07:07:35;-4.80;99.90
2407;DHT22;37709;53.480;9.688;2024-01-10T07:10:05;-4.80;99.90
2407;DHT22;37709;53.480;9.688;2024-01-10T07:12:34;-4.80;99.90
2407;DHT22;37709;53.480;9.688;2024-01-10T07:15:01;-4.80;99.90
2407;DHT22;37709;53.480;9.688;2024-01-10T07:17:33;-4.80;99.90
2407;DHT22;37709;53.480;9.688;2024-01-10T07:20:03;-4.80;99.90
2407;DHT22;37709;53.480;9.688;2024-01-10T07:22:31;-4.80;99.90
2407;DHT22;37709;53.480;9.688;2024-01-10T07:25:00;-4.80;99.90
2407;DHT22;37709;53.480;9.688;2024-01-10T07:27:28;-4.80;99.90
2407;DHT22;37709;53.480;9.688;2024-01-10T07:29:56;-4.70;99.90
2407;DHT22;37709;53.480;9.688;2024-01-10T07:32:24;-4.70;99.90
2407;DHT22;37709;53.480;9.688;2024-01-10T07:34:53;-4.70;99.90
2407;DHT22;37709;53.480;9.688;2024-01-10T07:37:20;-4.70;99.90
2407;DHT22;37709;53.480;9.688;2024-01-10T07:39:51;-4.70;99.90
2407;DHT22;37709;53.480;9.688;2024-01-10T07:42:22;-4.70;99.90
2407;DHT22;37709;53.480;9.688;2024-01-10T07:44:49;-4.70;99.90
2407;DHT22;37709;53.480;9.688;2024-01-10T07:47:20;-4.70;99.90
2407;DHT22;37709;53.480;9.688;2024-01-10T07:50:13;-4.70;99.90
2407;DHT22;37709;53.480;9.688;2024-01-10T07:52:43;-4.60;99.90
2407;DHT22;37709;53.480;9.688;2024-01-10T07:55:12;-4.60;99.90
2407;DHT22;37709;53.480;9.688;2024-01-10T07:57:40;-4.60;99.90
2407;DHT22;37709;53.480;9.688;2024-01-10T08:00:10;-4.50;99.90
2407;DHT22;37709;53.480;9.688;2024-01-10T08:02:41;-4.50;99.90
2407;DHT22;37709;53.480;9.688;2024-01-10T08:05:11;-4.50;99.90
2407;DHT22;37709;53.480;9.688;2024-01-10T08:07:40;-4.50;99.90
2407;DHT22;37709;53.480;9.688;2024-01-10T08:10:10;-4.40;99.90
2407;DHT22;37709;53.480;9.688;2024-01-10T08:12:37;-4.40;99.90
2407;DHT22;37709;53.480;9.688;2024-01-10T08:15:08;-4.30;99.90
2407;DHT22;37709;53.480;9.688;2024-01-10T08:17:35;-4.30;99.90
2407;DHT22;37709;53.480;9.688;2024-01-10T08:20:09;-4.30;99.90
2407;DHT22;37709;53.480;9.688;2024-01-10T08:22:38;-4.20;99.90
2407;DHT22;37709;53.480;9.688;2024-01-10T08:25:06;-4.20;99.90
2407;DHT22;37709;53.480;9.688;2024-01-10T08:27:36;-4.10;99.90
2407;DHT22;37709;53.480;9.688;2024-01-10T08:30:04;-4.10;99.90
2407;DHT22;37709;53.480;9.688;2024-01-10T08:32:32;-4.10;99.90
2407;DHT22;37709;53.480;9.688;2024-01-10T08:35:05;-4.00;99.90
2407;DHT22;37709;53.480;9.688;2024-01-10T08:37:36;-4.00;99.90
2407;DHT22;37709;53.480;9.688;2024-01-10T08:40:04;-3.90;99.90
2407;DHT22;37709;53.480;9.688;2024-01-10T08:42:33;-3.80;99.90
2407;DHT22;37709;53.480;9.688;2024-01-10T08:45:00;-3.80;99.90
2407;DHT22;37709;53.480;9.688;2024-01-10T08:47:29;-3.70;99.90
2407;DHT22;37709;53.480;9.688;2024-01-10T08:50:04;-3.70;99.90
2407;DHT22;37709;53.480;9.688;2024-01-10T08:52:36;-3.60;99.90
2407;DHT22;37709;53.480;9.688;2024-01-10T08:55:05;-3.50;99.90
2407;DHT22;37709;53.480;9.688;2024-01-10T08:57:41;-3.30;99.90
2407;DHT22;37709;53.480;9.688;2024-01-10T09:00:11;-3.30;99.90
2407;DHT22;37709;53.480;9.688;2024-01-10T09:02:44;-3.20;99.90
2407;DHT22;37709;53.480;9.688;2024-01-10T09:05:12;-3.20;99.90
2407;DHT22;37709;53.480;9.688;2024-01-10T09:07:39;-3.10;99.90
2407;DHT22;37709;53.480;9.688;2024-01-10T09:10:07;-3.10;99.90
2407;DHT22;37709;53.480;9.688;2024-01-10T09:12:35;-3.10;99.90
2407;DHT22;37709;53.480;9.688;2024-01-10T09:15:04;-3.10;99.90
2407;DHT22;37709;53.480;9.688;2024-01-10T09:17:32;-3.00;99.90
2407;DHT22;37709;53.480;9.688;2024-01-10T09:20:00;-3.00;99.90
2407;DHT22;37709;53.480;9.688;2024-01-10T09:22:29;-2.90;99.90
2407;DHT22;37709;53.480;9.688;2024-01-10T09:24:57;-2.90;99.90
2407;DHT22;37709;53.480;9.688;2024-01-10T09:27:34;-3.00;99.90
2407;DHT22;37709;53.480;9.688;2024-01-10T09:30:02;-2.90;99.90
2407;DHT22;37709;53.480;9.688;2024-01-10T09:32:31;-3.00;99.90
2407;DHT22;37709;53.480;9.688;2024-01-10T09:34:59;-3.00;99.90
2407;DHT22;37709;53.480;9.688;2024-01-10T09:37:28;-2.90;99.90
2407;DHT22;37709;53.480;9.688;2024-01-10T09:39:57;-2.80;99.90
2407;DHT22;37709;53.480;9.688;2024-01-10T09:42:26;-2.80;99.90
2407;DHT22;37709;53.480;9.688;2024-01-10T09:44:54;-2.50;99.90
2407;DHT22;37709;53.480;9.688;2024-01-10T09:47:24;-2.60;99.90
2407;DHT22;37709;53.480;9.688;2024-01-10T09:49:53;-2.70;99.90
2407;DHT22;37709;53.480;9.688;2024-01-10T09:52:28;-2.70;99.90
2407;DHT22;37709;53.480;9.688;2024-01-10T09:54:58;-2.60;99.90
2407;DHT22;37709;53.480;9.688;2024-01-10T09:57:26;-2.40;99.90
2407;DHT22;37709;53.480;9.688;2024-01-10T09:59:57;-2.10;99.90
2407;DHT22;37709;53.480;9.688;2024-01-10T10:02:25;-1.80;99.90
2407;DHT22;37709;53.480;9.688;2024-01-10T10:05:09;-1.60;99.90
2407;DHT22;37709;53.480;9.688;2024-01-10T10:10:18;-1.10;99.90
2407;DHT22;37709;53.480;9.688;2024-01-10T10:12:51;-0.60;99.90
2407;DHT22;37709;53.480;9.688;2024-01-10T10:15:24;0.10;99.90
2407;DHT22;37709;53.480;9.688;2024-01-10T10:17:54;-0.30;99.90
2407;DHT22;37709;53.480;9.688;2024-01-10T10:20:27;-0.40;99.90
2407;DHT22;37709;53.480;9.688;2024-01-10T10:23:08;-0.70;99.90
2407;DHT22;37709;53.480;9.688;2024-01-10T10:26:12;-0.80;99.90
2407;DHT22;37709;53.480;9.688;2024-01-10T10:28:50;-1.20;99.90
2407;DHT22;37709;53.480;9.688;2024-01-10T10:31:19;-1.60;99.90
2407;DHT22;37709;53.480;9.688;2024-01-10T10:33:50;-1.10;99.90
2407;DHT22;37709;53.480;9.688;2024-01-10T10:36:22;-0.70;99.90
2407;DHT22;37709;53.480;9.688;2024-01-10T10:38:50;-0.30;99.90
2407;DHT22;37709;53.480;9.688;2024-01-10T10:41:19;0.50;99.90
2407;DHT22;37709;53.480;9.688;2024-01-10T10:43:47;0.10;99.90
2407;DHT22;37709;53.480;9.688;2024-01-10T10:46:17;-0.60;99.90
2407;DHT22;37709;53.480;9.688;2024-01-10T10:48:45;-1.30;99.90
2407;DHT22;37709;53.480;9.688;2024-01-10T10:51:19;-1.80;99.90
2407;DHT22;37709;53.480;9.688;2024-01-10T10:53:50;-1.30;99.90
2407;DHT22;37709;53.480;9.688;2024-01-10T10:56:47;-0.90;99.90
2407;DHT22;37709;53.480;9.688;2024-01-10T10:59:16;-0.70;99.90
2407;DHT22;37709;53.480;9.688;2024-01-10T11:01:44;-0.70;99.90
2407;DHT22;37709;53.480;9.688;2024-01-10T11:04:16;-0.70;99.90
2407;DHT22;37709;53.480;9.688;2024-01-10T11:06:44;-0.60;99.90
2407;DHT22;37709;53.480;9.688;2024-01-10T11:09:15;1.00;99.90
2407;DHT22;37709;53.480;9.688;2024-01-10T11:15:34;5.70;99.90
2407;DHT22;37709;53.480;9.688;2024-01-10T11:18:41;7.10;99.90
2407;DHT22;37709;53.480;9.688;2024-01-10T11:23:49;3.20;99.90
2407;DHT22;37709;53.480;9.688;2024-01-10T11:26:19;3.30;99.90
2407;DHT22;37709;53.480;9.688;2024-01-10T11:28:51;4.20;99.90
2407;DHT22;37709;53.480;9.688;2024-01-10T11:31:30;4.30;99.90
2407;DHT22;37709;53.480;9.688;2024-01-10T11:34:00;4.70;99.90
2407;DHT22;37709;53.480;9.688;2024-01-10T11:36:27;6.60;99.90
2407;DHT22;37709;53.480;9.688;2024-01-10T11:39:03;8.30;99.90
2407;DHT22;37709;53.480;9.688;2024-01-10T11:41:38;8.70;99.90
2407;DHT22;37709;53.480;9.688;2024-01-10T11:46:41;8.10;99.90
2407;DHT22;37709;53.480;9.688;2024-01-10T11:49:11;8.20;99.90
2407;DHT22;37709;53.480;9.688;2024-01-10T11:51:40;9.20;99.90
2407;DHT22;37709;53.480;9.688;2024-01-10T11:54:11;9.60;99.90
2407;DHT22;37709;53.480;9.688;2024-01-10T11:56:43;10.40;99.90
2407;DHT22;37709;53.480;9.688;2024-01-10T11:59:15;11.00;99.90
2407;DHT22;37709;53.480;9.688;2024-01-10T12:01:45;11.80;99.90
2407;DHT22;37709;53.480;9.688;2024-01-10T12:04:19;12.70;99.90
2407;DHT22;37709;53.480;9.688;2024-01-10T12:07:02;12.80;99.90
2407;DHT22;37709;53.480;9.688;2024-01-10T12:09:35;11.20;99.90
2407;DHT22;37709;53.480;9.688;2024-01-10T12:12:05;11.90;99.90
2407;DHT22;37709;53.480;9.688;2024-01-10T12:14:34;12.20;99.90
2407;DHT22;37709;53.480;9.688;2024-01-10T12:17:05;12.50;99.90
2407;DHT22;37709;53.480;9.688;2024-01-10T12:19:34;12.80;99.90
2407;DHT22;37709;53.480;9.688;2024-01-10T12:22:06;13.40;99.90
2407;DHT22;37709;53.480;9.688;2024-01-10T12:24:43;13.60;99.90
2407;DHT22;37709;53.480;9.688;2024-01-10T12:27:17;13.30;99.90
2407;DHT22;37709;53.480;9.688;2024-01-10T12:29:50;12.60;99.90
2407;DHT22;37709;53.480;9.688;2024-01-10T12:32:20;12.40;99.90
2407;DHT22;37709;53.480;9.688;2024-01-10T12:34:59;13.30;99.90
2407;DHT22;37709;53.480;9.688;2024-01-10T12:37:29;13.20;99.90
2407;DHT22;37709;53.480;9.688;2024-01-10T12:39:56;12.90;99.90
2407;DHT22;37709;53.480;9.688;2024-01-10T12:42:24;13.20;99.90
2407;DHT22;37709;53.480;9.688;2024-01-10T12:44:52;12.50;99.90
2407;DHT22;37709;53.480;9.688;2024-01-10T12:47:22;12.00;99.90
2407;DHT22;37709;53.480;9.688;2024-01-10T12:49:51;10.40;99.90
2407;DHT22;37709;53.480;9.688;2024-01-10T12:52:19;11.10;99.90
2407;DHT22;37709;53.480;9.688;2024-01-10T12:54:52;11.40;99.90
2407;DHT22;37709;53.480;9.688;2024-01-10T12:57:21;9.50;99.90
2407;DHT22;37709;53.480;9.688;2024-01-10T12:59:50;9.90;99.90
2407;DHT22;37709;53.480;9.688;2024-01-10T13:02:18;10.60;99.90
2407;DHT22;37709;53.480;9.688;2024-01-10T13:04:46;10.80;99.90
2407;DHT22;37709;53.480;9.688;2024-01-10T13:07:13;10.70;99.90
2407;DHT22;37709;53.480;9.688;2024-01-10T13:09:43;11.30;99.90
2407;DHT22;37709;53.480;9.688;2024-01-10T13:12:12;11.50;99.90
2407;DHT22;37709;53.480;9.688;2024-01-10T13:14:40;11.50;99.90
2407;DHT22;37709;53.480;9.688;2024-01-10T13:17:08;11.00;99.90
2407;DHT22;37709;53.480;9.688;2024-01-10T13:19:37;10.90;99.90
2407;DHT22;37709;53.480;9.688;2024-01-10T13:22:04;10.50;99.90
2407;DHT22;37709;53.480;9.688;2024-01-10T13:24:35;9.70;99.90
2407;DHT22;37709;53.480;9.688;2024-01-10T13:27:03;9.60;99.90
2407;DHT22;37709;53.480;9.688;2024-01-10T13:29:55;10.20;99.90
2407;DHT22;37709;53.480;9.688;2024-01-10T13:32:23;9.10;99.90
2407;DHT22;37709;53.480;9.688;2024-01-10T13:34:53;9.30;99.90
2407;DHT22;37709;53.480;9.688;2024-01-10T13:37:20;8.20;99.90
2407;DHT22;37709;53.480;9.688;2024-01-10T13:39:49;8.80;99.90
2407;DHT22;37709;53.480;9.688;2024-01-10T13:42:18;9.90;99.90
2407;DHT22;37709;53.480;9.688;2024-01-10T13:44:45;8.90;99.90
2407;DHT22;37709;53.480;9.688;2024-01-10T13:47:13;8.00;99.90
2407;DHT22;37709;53.480;9.688;2024-01-10T13:49:42;7.10;99.90
2407;DHT22;37709;53.480;9.688;2024-01-10T13:52:12;6.10;99.90
2407;DHT22;37709;53.480;9.688;2024-01-10T13:54:40;5.90;99.90
2407;DHT22;37709;53.480;9.688;2024-01-10T13:57:07;4.30;99.90
2407;DHT22;37709;53.480;9.688;2024-01-10T13:59:35;3.10;99.90
2407;DHT22;37709;53.480;9.688;2024-01-10T14:02:07;2.00;99.90
2407;DHT22;37709;53.480;9.688;2024-01-10T14:04:34;2.10;99.90
2407;DHT22;37709;53.480;9.688;2024-01-10T14:07:04;2.70;99.90
2407;DHT22;37709;53.480;9.688;2024-01-10T14:09:31;3.10;99.90
2407;DHT22;37709;53.480;9.688;2024-01-10T14:11:59;3.20;99.90
2407;DHT22;37709;53.480;9.688;2024-01-10T14:14:27;3.80;99.90
2407;DHT22;37709;53.480;9.688;2024-01-10T14:16:55;3.80;99.90
2407;DHT22;37709;53.480;9.688;2024-01-10T14:19:24;3.60;99.90
2407;DHT22;37709;53.480;9.688;2024-01-10T14:21:51;3.70;99.90
2407;DHT22;37709;53.480;9.688;2024-01-10T14:24:20;3.10;99.90
2407;DHT22;37709;53.480;9.688;2024-01-10T14:26:49;2.20;99.90
2407;DHT22;37709;53.480;9.688;2024-01-10T14:29:17;1.60;99.90
2407;DHT22;37709;53.480;9.688;2024-01-10T14:31:48;1.50;99.90
2407;DHT22;37709;53.480;9.688;2024-01-10T14:34:39;1.30;99.90
2407;DHT22;37709;53.480;9.688;2024-01-10T14:37:08;1.00;99.90
2407;DHT22;37709;53.480;9.688;2024-01-10T14:39:35;0.80;99.90
2407;DHT22;37709;53.480;9.688;2024-01-10T14:42:09;0.50;99.90
2407;DHT22;37709;53.480;9.688;2024-01-10T14:44:37;-0.40;99.90
2407;DHT22;37709;53.480;9.688;2024-01-10T14:47:05;-0.90;99.90
2407;DHT22;37709;53.480;9.688;2024-01-10T14:49:41;-1.50;99.90
2407;DHT22;37709;53.480;9.688;2024-01-10T14:52:09;-1.90;99.90
2407;DHT22;37709;53.480;9.688;2024-01-10T14:55:03;-2.20;99.90
2407;DHT22;37709;53.480;9.688;2024-01-10T14:57:32;-2.30;99.90
2407;DHT22;37709;53.480;9.688;2024-01-10T15:00:02;-2.50;99.90
2407;DHT22;37709;53.480;9.688;2024-01-10T15:02:30;-2.60;99.90
2407;DHT22;37709;53.480;9.688;2024-01-10T15:05:03;-2.70;99.90
2407;DHT22;37709;53.480;9.688;2024-01-10T15:07:30;-2.80;99.90
2407;DHT22;37709;53.480;9.688;2024-01-10T15:09:58;-3.10;99.90
2407;DHT22;37709;53.480;9.688;2024-01-10T15:12:31;-3.10;99.90
2407;DHT22;37709;53.480;9.688;2024-01-10T15:14:59;-3.10;99.90
2407;DHT22;37709;53.480;9.688;2024-01-10T15:17:30;-3.10;99.90
2407;DHT22;37709;53.480;9.688;2024-01-10T15:19:58;-3.10;99.90
2407;DHT22;37709;53.480;9.688;2024-01-10T15:22:26;-3.20;99.90
2407;DHT22;37709;53.480;9.688;2024-01-10T15:24:54;-3.30;99.90
2407;DHT22;37709;53.480;9.688;2024-01-10T15:27:46;-3.40;99.90
2407;DHT22;37709;53.480;9.688;2024-01-10T15:30:16;-3.50;99.90
2407;DHT22;37709;53.480;9.688;2024-01-10T15:32:47;-3.50;99.90
2407;DHT22;37709;53.480;9.688;2024-01-10T15:35:16;-3.50;99.90
2407;DHT22;37709;53.480;9.688;2024-01-10T15:38:11;-3.70;99.90
2407;DHT22;37709;53.480;9.688;2024-01-10T15:40:39;-3.70;99.90
2407;DHT22;37709;53.480;9.688;2024-01-10T15:43:08;-3.80;99.90
2407;DHT22;37709;53.480;9.688;2024-01-10T15:45:37;-3.80;99.90
2407;DHT22;37709;53.480;9.688;2024-01-10T15:48:06;-3.80;99.90
2407;DHT22;37709;53.480;9.688;2024-01-10T15:50:34;-3.80;99.90
2407;DHT22;37709;53.480;9.688;2024-01-10T15:53:03;-3.80;99.90
2407;DHT22;37709;53.480;9.688;2024-01-10T15:55:31;-3.80;99.90
2407;DHT22;37709;53.480;9.688;2024-01-10T15:58:00;-3.80;99.90
2407;DHT22;37709;53.480;9.688;2024-01-10T16:00:28;-3.90;99.90
2407;DHT22;37709;53.480;9.688;2024-01-10T16:03:20;-3.80;99.90
2407;DHT22;37709;53.480;9.688;2024-01-10T16:05:48;-3.80;99.90
2407;DHT22;37709;53.480;9.688;2024-01-10T16:08:20;-3.80;99.90
2407;DHT22;37709;53.480;9.688;2024-01-10T16:10:48;-3.90;99.90
2407;DHT22;37709;53.480;9.688;2024-01-10T16:13:16;-4.00;99.90
2407;DHT22;37709;53.480;9.688;2024-01-10T16:15:45;-4.10;99.90